createdAt,value
2019-01-08T00:01:24.285Z,2.30
2019-01-08T00:03:52.844Z,2.20
2019-01-08T00:06:21.312Z,2.20
2019-01-08T00:08:49.803Z,2.20
2019-01-08T00:11:19.288Z,2.20
2019-01-08T00:13:47.785Z,2.20
2019-01-08T00:16:16.341Z,2.20
2019-01-08T00:18:44.829Z,2.20
2019-01-08T00:21:14.215Z,2.20
2019-01-08T00:23:42.710Z,2.20
2019-01-08T00:26:11.375Z,2.30
2019-01-08T00:28:43.330Z,2.30
2019-01-08T00:31:10.092Z,2.30
2019-01-08T00:33:38.608Z,2.40
2019-01-08T00:36:07.116Z,2.40
2019-01-08T00:38:35.622Z,2.30
2019-01-08T00:41:04.237Z,2.20
2019-01-08T00:43:32.720Z,2.20
2019-01-08T00:46:01.208Z,2.20
2019-01-08T00:48:29.767Z,2.20
2019-01-08T00:50:58.321Z,2.20
2019-01-08T00:53:26.885Z,2.20
2019-01-08T00:55:55.372Z,2.20
2019-01-08T00:58:23.838Z,2.20
2019-01-08T01:00:52.397Z,2.20
2019-01-08T01:03:20.889Z,2.20
2019-01-08T01:05:49.450Z,2.20
2019-01-08T01:08:17.999Z,2.30
2019-01-08T01:10:46.560Z,2.30
2019-01-08T01:13:15.212Z,2.30
2019-01-08T01:15:44.133Z,2.40
2019-01-08T01:18:12.681Z,2.40
2019-01-08T01:20:41.255Z,2.50
2019-01-08T01:23:09.789Z,2.50
2019-01-08T01:25:38.278Z,2.50
2019-01-08T01:28:06.741Z,2.60
2019-01-08T01:30:35.305Z,2.60
2019-01-08T01:33:03.853Z,2.60
2019-01-08T01:35:32.333Z,2.60
2019-01-08T01:38:01.320Z,2.60
2019-01-08T01:40:29.889Z,2.60
2019-01-08T01:42:58.426Z,2.60
2019-01-08T01:45:26.917Z,2.70
2019-01-08T01:47:55.452Z,2.60
2019-01-08T01:50:23.941Z,2.60
2019-01-08T01:52:52.485Z,2.50
2019-01-08T01:55:20.982Z,2.50
2019-01-08T01:57:49.513Z,2.50
2019-01-08T02:00:18.194Z,2.50
2019-01-08T02:02:46.735Z,2.50
2019-01-08T02:05:15.297Z,2.50
2019-01-08T02:07:43.859Z,2.40
2019-01-08T02:10:12.407Z,2.40
2019-01-08T02:12:40.900Z,2.40
2019-01-08T02:15:09.500Z,2.40
2019-01-08T02:17:38.005Z,2.40
2019-01-08T02:20:07.178Z,2.40
2019-01-08T02:22:35.734Z,2.40
2019-01-08T02:25:04.642Z,2.50
2019-01-08T02:27:33.216Z,2.50
2019-01-08T02:30:01.729Z,2.50
2019-01-08T02:32:30.459Z,2.50
2019-01-08T02:34:58.998Z,2.60
2019-01-08T02:37:27.569Z,2.60
2019-01-08T02:39:56.663Z,2.60
2019-01-08T02:42:25.516Z,2.70
2019-01-08T02:44:54.058Z,2.70
2019-01-08T02:47:22.618Z,2.80
2019-01-08T02:49:51.206Z,2.90
2019-01-08T02:52:19.769Z,2.90
2019-01-08T02:54:48.311Z,3.00
2019-01-08T02:57:16.900Z,3.10
2019-01-08T02:59:45.432Z,3.20
2019-01-08T03:02:13.912Z,3.20
2019-01-08T03:04:42.448Z,3.30
2019-01-08T03:07:10.945Z,3.30
2019-01-08T03:09:39.482Z,3.20
2019-01-08T03:12:08.043Z,3.30
2019-01-08T03:14:36.589Z,3.30
2019-01-08T03:17:05.151Z,3.30
2019-01-08T03:19:33.989Z,3.30
2019-01-08T03:22:02.512Z,3.30
2019-01-08T03:24:31.045Z,3.30
2019-01-08T03:26:59.604Z,3.40
2019-01-08T03:29:33.486Z,3.40
2019-01-08T03:31:58.620Z,3.40
2019-01-08T03:34:27.264Z,3.40
2019-01-08T03:36:55.822Z,3.40
2019-01-08T03:39:24.365Z,3.40
2019-01-08T03:41:53.001Z,3.40
2019-01-08T03:44:22.414Z,3.30
2019-01-08T03:46:50.951Z,3.30
2019-01-08T03:49:19.513Z,3.20
2019-01-08T03:51:47.982Z,3.20
2019-01-08T03:54:16.623Z,3.20
2019-01-08T03:56:45.168Z,3.10
2019-01-08T10:00:42.058Z,5.70
2019-01-08T10:03:10.629Z,6.60
2019-01-08T10:05:39.241Z,9.10
2019-01-08T10:08:07.824Z,8.30
2019-01-08T10:10:36.457Z,7.40
2019-01-08T10:13:04.934Z,6.90
2019-01-08T10:15:33.473Z,6.60
2019-01-08T10:18:02.034Z,6.50
2019-01-08T10:20:30.572Z,6.40
2019-01-08T10:22:59.141Z,6.30
2019-01-08T10:25:27.672Z,6.30
2019-01-08T10:27:56.161Z,6.20
2019-01-08T10:30:24.624Z,6.20
2019-01-08T10:32:53.121Z,6.20
2019-01-08T10:35:21.584Z,6.40
2019-01-08T10:37:50.146Z,6.50
2019-01-08T10:40:18.702Z,6.60
2019-01-08T10:42:47.285Z,6.70
2019-01-08T10:45:15.752Z,6.80
2019-01-08T10:47:44.241Z,6.90
2019-01-08T10:50:12.789Z,7.00
2019-01-08T10:52:41.285Z,7.00
2019-01-08T10:55:09.835Z,7.00
2019-01-08T10:57:38.396Z,7.00
2019-01-08T11:00:09.585Z,7.10
2019-01-08T11:02:38.119Z,7.00
2019-01-08T11:05:06.698Z,7.20
2019-01-08T11:07:35.265Z,7.20
2019-01-08T11:10:05.571Z,7.30
2019-01-08T11:12:34.111Z,7.30
2019-01-08T11:15:02.674Z,7.10
2019-01-08T11:17:31.149Z,7.00
2019-01-08T11:19:59.712Z,7.10
2019-01-08T11:22:28.188Z,7.20
2019-01-08T11:24:57.430Z,7.10
2019-01-08T11:27:25.966Z,7.20
2019-01-08T11:29:54.520Z,7.40
2019-01-08T11:32:23.212Z,7.40
2019-01-08T11:34:51.705Z,7.40
2019-01-08T11:37:20.171Z,7.50
2019-01-08T11:39:48.815Z,7.50
2019-01-08T11:42:17.357Z,7.90
2019-01-08T11:44:45.852Z,8.60
2019-01-08T11:47:14.324Z,8.90
2019-01-08T11:49:42.874Z,8.90
2019-01-08T11:52:11.437Z,8.60
2019-01-08T11:54:41.295Z,8.30
2019-01-08T11:57:09.878Z,8.10
2019-01-08T11:59:38.369Z,7.80
2019-01-08T12:02:06.971Z,7.30
2019-01-08T12:04:35.535Z,7.00
2019-01-08T12:07:04.156Z,6.70
2019-01-08T12:09:32.633Z,6.60
2019-01-08T12:12:01.197Z,6.60
2019-01-08T12:14:29.744Z,6.60
2019-01-08T12:16:58.378Z,6.70
2019-01-08T12:19:26.961Z,6.90
2019-01-08T12:21:55.516Z,6.90
2019-01-08T12:24:23.988Z,6.90
2019-01-08T12:26:52.581Z,6.90
2019-01-08T12:29:21.121Z,6.80
2019-01-08T12:31:49.641Z,6.70
2019-01-08T12:34:18.180Z,6.60
2019-01-08T12:36:46.813Z,6.60
2019-01-08T12:39:16.197Z,6.50
2019-01-08T12:41:44.765Z,6.50
2019-01-08T12:44:13.317Z,6.70
2019-01-08T12:46:41.865Z,6.90
2019-01-08T12:49:10.336Z,7.00
2019-01-08T12:51:38.820Z,7.50
2019-01-08T12:54:07.361Z,7.70
2019-01-08T12:56:35.855Z,7.90
2019-01-08T12:59:04.395Z,8.10
2019-01-08T13:01:33.621Z,8.00
2019-01-08T13:04:02.169Z,7.90
2019-01-08T13:06:30.736Z,7.70
2019-01-08T13:08:59.353Z,7.50
2019-01-08T13:11:27.953Z,7.30
2019-01-08T13:13:56.517Z,7.40
2019-01-08T13:16:25.008Z,7.10
2019-01-08T13:18:53.653Z,6.80
2019-01-08T13:21:22.250Z,6.80
2019-01-08T13:23:50.755Z,6.70
2019-01-08T13:26:19.319Z,6.70
2019-01-08T13:28:47.780Z,6.70
2019-01-08T13:31:16.279Z,6.60
2019-01-08T13:33:44.811Z,6.50
2019-01-08T13:36:13.393Z,6.30
2019-01-08T13:38:41.944Z,6.20
2019-01-08T13:41:11.003Z,6.30
2019-01-08T13:43:39.546Z,6.10
2019-01-08T13:46:08.111Z,5.90
2019-01-08T13:48:36.648Z,5.80
2019-01-08T13:51:05.204Z,5.70
2019-01-08T13:53:33.681Z,5.80
2019-01-08T13:56:02.235Z,5.80
2019-01-08T13:58:30.950Z,5.80
2019-01-08T14:00:59.493Z,5.70
2019-01-08T14:03:27.985Z,5.80
2019-01-08T14:05:56.589Z,5.90
2019-01-08T14:08:25.127Z,5.90
2019-01-08T14:10:56.515Z,5.80
2019-01-08T14:13:23.965Z,5.80
2019-01-08T14:15:52.506Z,5.80
2019-01-08T14:18:21.072Z,5.70
2019-01-08T14:20:49.561Z,5.70
2019-01-08T14:23:18.115Z,5.60
2019-01-08T14:25:47.045Z,5.50
2019-01-08T14:28:15.545Z,5.40
2019-01-08T14:30:44.081Z,5.40
2019-01-08T14:33:13.121Z,5.40
2019-01-08T14:35:41.681Z,5.30
2019-01-08T14:38:10.323Z,5.40
2019-01-08T14:40:38.945Z,5.40
2019-01-08T14:43:13.940Z,5.40
2019-01-08T14:45:37.701Z,5.20
2019-01-08T14:48:06.261Z,5.10
2019-01-08T14:50:34.888Z,5.10
2019-01-08T14:53:03.451Z,5.30
2019-01-08T14:55:32.015Z,5.30
2019-01-08T14:58:00.575Z,5.30
2019-01-08T15:00:29.180Z,5.10
2019-01-08T15:02:57.741Z,5.10
2019-01-08T15:05:26.210Z,5.20
2019-01-08T15:07:54.796Z,5.30
2019-01-08T15:10:23.329Z,5.30
2019-01-08T15:12:51.796Z,5.20
2019-01-08T15:15:20.280Z,5.30
2019-01-08T15:17:48.749Z,5.30
2019-01-08T15:20:17.242Z,5.20
2019-01-08T15:22:45.794Z,5.10
2019-01-08T15:25:14.423Z,5.10
2019-01-08T15:27:42.892Z,5.20
2019-01-08T15:30:11.449Z,5.20
2019-01-08T15:32:39.958Z,5.10
2019-01-08T15:35:08.454Z,5.10
2019-01-08T15:37:37.004Z,5.20
2019-01-08T15:40:06.736Z,5.20
2019-01-08T15:42:35.235Z,5.10
2019-01-08T15:45:04.184Z,5.10
2019-01-08T15:47:32.716Z,5.00
2019-01-08T15:50:01.357Z,5.10
2019-01-08T15:52:29.926Z,5.10
2019-01-08T15:54:58.494Z,5.00
2019-01-08T15:57:27.070Z,5.00
2019-01-08T15:59:55.638Z,5.00
2019-01-08T16:02:25.091Z,4.90
2019-01-08T16:04:53.713Z,5.00
2019-01-08T16:07:22.254Z,5.00
2019-01-08T16:09:50.994Z,5.00
2019-01-08T16:12:19.549Z,5.00
2019-01-08T16:14:48.045Z,5.00
2019-01-08T16:17:17.106Z,5.00
2019-01-08T16:19:45.876Z,5.00
2019-01-08T16:22:14.407Z,5.00
2019-01-08T16:24:43.146Z,5.10
2019-01-08T16:27:11.605Z,5.10
2019-01-08T16:29:40.167Z,5.00
2019-01-08T16:32:08.701Z,5.00
2019-01-08T16:34:37.252Z,5.00
2019-01-08T16:37:05.788Z,4.90
2019-01-08T16:39:34.358Z,4.80
2019-01-08T16:42:03.477Z,4.70
2019-01-08T16:44:32.109Z,4.80
2019-01-08T16:47:00.649Z,4.80
2019-01-08T16:49:29.128Z,4.70
2019-01-08T16:51:57.607Z,4.70
2019-01-08T16:54:26.182Z,4.70
2019-01-08T16:56:54.718Z,4.70
2019-01-08T16:59:23.293Z,4.80
2019-01-08T17:01:51.839Z,4.80
2019-01-08T17:04:20.964Z,4.70
2019-01-08T17:06:49.510Z,4.70
2019-01-08T17:09:18.073Z,4.70
2019-01-08T17:11:46.615Z,4.70
2019-01-08T17:14:15.153Z,4.60
2019-01-08T17:16:43.713Z,4.60
2019-01-08T17:19:12.263Z,4.60
2019-01-08T17:21:40.834Z,4.70
2019-01-08T17:24:09.633Z,4.70
2019-01-08T17:26:38.197Z,4.70
2019-01-08T17:29:06.741Z,4.70
2019-01-08T17:31:35.311Z,4.70
2019-01-08T17:34:03.927Z,4.70
2019-01-08T17:36:32.493Z,4.80
2019-01-08T17:39:01.036Z,4.80
2019-01-08T17:41:29.534Z,4.80
2019-01-08T17:43:58.068Z,4.80
2019-01-08T17:46:26.633Z,4.80
2019-01-08T17:48:55.178Z,4.80
2019-01-08T17:51:23.746Z,4.80
2019-01-08T17:53:52.289Z,4.80
2019-01-08T17:56:20.789Z,4.80
2019-01-08T17:58:49.701Z,4.70
2019-01-08T18:01:21.241Z,4.70
2019-01-08T18:03:49.773Z,4.70
2019-01-08T18:06:18.934Z,4.70
2019-01-08T18:08:47.479Z,4.60
2019-01-08T18:11:16.306Z,4.60
2019-01-08T18:13:44.869Z,4.50
2019-01-08T18:16:13.431Z,4.50
2019-01-08T18:18:42.443Z,4.60
2019-01-08T18:21:11.271Z,4.60
2019-01-08T18:23:40.076Z,4.60
2019-01-08T18:26:08.641Z,4.60
2019-01-08T18:28:37.185Z,4.60
2019-01-08T18:31:05.823Z,4.60
2019-01-08T18:33:35.273Z,4.60
2019-01-08T18:36:03.838Z,4.70
2019-01-08T18:38:32.376Z,4.70
2019-01-08T18:41:00.961Z,4.70
2019-01-08T18:43:29.511Z,4.70
2019-01-08T18:45:58.076Z,4.70
2019-01-08T18:48:26.547Z,4.70
2019-01-08T18:50:55.097Z,4.60
2019-01-08T18:53:23.648Z,4.60
2019-01-08T18:55:52.201Z,4.60
2019-01-08T18:58:20.674Z,4.60
2019-01-08T19:00:49.205Z,4.60
2019-01-08T19:03:17.698Z,4.60
2019-01-08T19:05:46.179Z,4.60
2019-01-08T19:08:14.736Z,4.60
2019-01-08T19:10:43.197Z,4.70
2019-01-08T19:13:11.681Z,4.70
2019-01-08T19:15:40.498Z,4.70
2019-01-08T19:18:08.985Z,4.70
2019-01-08T19:20:37.529Z,4.70
2019-01-08T19:23:06.035Z,4.60
2019-01-08T19:25:34.587Z,4.70
2019-01-08T19:28:03.165Z,4.60
2019-01-08T19:30:31.721Z,4.60
2019-01-08T19:33:00.393Z,4.60
2019-01-08T19:35:31.858Z,4.60
2019-01-08T19:37:59.220Z,4.60
2019-01-08T19:40:27.765Z,4.60
2019-01-08T19:42:56.353Z,4.60
2019-01-08T19:45:25.002Z,4.70
2019-01-08T19:47:53.566Z,4.70
2019-01-08T19:50:22.117Z,4.70
2019-01-08T19:52:50.689Z,4.70
2019-01-08T19:55:19.176Z,4.70
2019-01-08T19:57:48.637Z,4.70
2019-01-08T20:00:17.241Z,4.70
2019-01-08T20:02:45.933Z,4.70
2019-01-08T20:05:14.414Z,4.80
2019-01-08T20:07:42.994Z,4.70
2019-01-08T20:10:11.530Z,4.70
2019-01-08T20:12:40.097Z,4.80
2019-01-08T20:15:09.302Z,4.70
2019-01-08T20:17:37.895Z,4.80
2019-01-08T20:20:08.181Z,4.80
2019-01-08T20:22:36.735Z,4.80
2019-01-08T20:25:05.843Z,4.80
2019-01-08T20:27:34.371Z,4.70
2019-01-08T20:30:03.049Z,4.70
2019-01-08T20:32:31.604Z,4.80
2019-01-08T20:35:00.270Z,4.80
2019-01-08T20:37:28.901Z,4.80
2019-01-08T20:39:57.394Z,4.80
2019-01-08T20:42:25.974Z,4.70
2019-01-08T20:44:54.597Z,4.60
2019-01-08T20:47:23.217Z,4.70
2019-01-08T20:49:51.769Z,4.70
2019-01-08T20:52:20.314Z,4.70
2019-01-08T20:54:48.868Z,4.50
2019-01-08T20:57:17.453Z,4.40
2019-01-08T20:59:45.947Z,4.50
2019-01-08T21:02:14.426Z,4.60
2019-01-08T21:04:43.895Z,4.60
2019-01-08T21:07:12.448Z,4.60
2019-01-08T21:09:41.012Z,4.50
2019-01-08T21:12:09.648Z,4.60
2019-01-08T21:14:38.216Z,4.50
2019-01-08T21:17:06.805Z,4.60
2019-01-08T21:19:35.366Z,4.50
2019-01-08T21:22:03.906Z,4.40
2019-01-08T21:24:32.494Z,4.40
2019-01-08T21:27:01.050Z,4.30
2019-01-08T21:29:29.606Z,4.30
2019-01-08T21:31:58.097Z,4.30
2019-01-08T21:34:26.689Z,4.30
2019-01-08T21:36:55.237Z,4.30
2019-01-08T21:39:23.810Z,4.30
2019-01-08T21:41:52.343Z,4.40
2019-01-08T21:44:20.897Z,4.40
2019-01-08T21:46:49.373Z,4.50
2019-01-08T21:49:18.461Z,4.50
2019-01-08T21:51:47.010Z,4.40
2019-01-08T21:54:15.714Z,4.50
2019-01-08T21:56:44.263Z,4.50
2019-01-08T21:59:12.861Z,4.50
2019-01-08T22:01:41.381Z,4.50
2019-01-08T22:04:09.953Z,4.50
2019-01-08T22:06:38.495Z,4.40
2019-01-08T22:09:07.129Z,4.30
2019-01-08T22:11:36.370Z,4.30
2019-01-08T22:14:05.017Z,4.30
2019-01-08T22:16:33.561Z,4.30
2019-01-08T22:19:02.027Z,4.30
2019-01-08T22:21:30.594Z,4.30
2019-01-08T22:23:59.201Z,4.30
2019-01-08T22:26:27.697Z,4.30
2019-01-08T22:28:56.230Z,4.20
2019-01-08T22:31:24.732Z,4.10
2019-01-08T22:33:54.121Z,4.10
2019-01-08T22:36:22.608Z,4.10
2019-01-08T22:38:51.153Z,4.10
2019-01-08T22:41:19.651Z,4.20
2019-01-08T22:43:48.248Z,4.10
2019-01-08T22:46:17.105Z,4.10
2019-01-08T22:48:45.647Z,4.10
2019-01-08T22:51:14.295Z,4.10
2019-01-08T22:53:42.841Z,4.00
2019-01-08T22:56:11.412Z,3.90
2019-01-08T22:58:39.948Z,3.80
2019-01-08T23:01:10.212Z,3.90
2019-01-08T23:03:39.100Z,4.00
2019-01-08T23:06:07.759Z,4.00
2019-01-08T23:08:36.360Z,4.00
2019-01-08T23:11:04.847Z,4.00
2019-01-08T23:13:33.452Z,4.00
2019-01-08T23:16:01.953Z,4.10
2019-01-08T23:18:30.550Z,4.10
2019-01-08T23:20:59.101Z,4.10
2019-01-08T23:23:27.816Z,4.10
2019-01-08T23:25:56.473Z,4.00
2019-01-08T23:28:24.929Z,4.10
2019-01-08T23:30:53.502Z,4.00
2019-01-08T23:33:22.049Z,4.00
2019-01-08T23:35:51.088Z,4.10
2019-01-08T23:38:19.693Z,4.10
2019-01-08T23:40:48.241Z,4.00
2019-01-08T23:43:16.786Z,3.90
2019-01-08T23:45:45.408Z,3.90
2019-01-08T23:48:13.943Z,3.80
2019-01-08T23:50:42.488Z,3.70
2019-01-08T23:53:13.581Z,3.60
2019-01-08T23:55:45.154Z,3.40
2019-01-08T23:58:13.953Z,3.40
